Time;durP1;ratioP1;P1;durP2;ratioP2;P2;SDS_P1;SDS_P2;PMS_P1;PMS_P2;Temp;Humidity;BMP_temperature;BMP_pressure;BME280_temperature;BME280_humidity;BME280_pressure;Samples;Min_cycle;Max_cycle;Signal;HPM_P1;HPM_P2
2022/09/10 00:02:32;;;;;;;19.33;6.65;;;;;;;12.62;61.69;100943.66;10252524;28;20043;-69
2022/09/10 00:07:33;;;;;;;37.10;13.60;;;;;;;12.37;61.11;100910.88;10252683;28;20051;-69
2022/09/10 00:12:34;;;;;;;36.25;11.75;;;;;;;12.45;61.54;100937.53;10252063;28;20043;-69
2022/09/10 00:17:37;;;;;;;41.20;17.65;;;;;;;11.87;61.77;100844.22;10251396;28;20046;-69
2022/09/10 00:22:38;;;;;;;61.72;20.42;;;;;;;12.32;61.70;100917.53;10251715;28;20177;-69
2022/09/10 00:27:39;;;;;;;43.20;18.23;;;;;;;11.82;62.56;100861.66;10251735;28;20054;-69
2022/09/10 00:32:40;;;;;;;28.58;12.00;;;;;;;12.15;62.47;100938.97;10250146;29;20412;-69
2022/09/10 00:37:41;;;;;;;39.67;17.02;;;;;;;12.16;62.78;100949.47;10249924;29;20062;-69
2022/09/10 00:42:44;;;;;;;24.73;10.25;;;;;;;12.08;63.02;100930.78;10251798;28;20091;-69
2022/09/10 00:47:46;;;;;;;31.63;8.37;;;;;;;11.68;63.32;100864.97;10251237;28;20049;-69
2022/09/10 00:52:50;;;;;;;27.27;9.73;;;;;;;12.04;63.75;100922.31;10251214;28;20043;-69
2022/09/10 00:57:55;;;;;;;27.02;10.70;;;;;;;11.92;64.16;100920.13;10250637;28;20047;-69
2022/09/10 01:02:58;;;;;;;31.33;12.68;;;;;;;12.04;63.87;100961.41;10251016;28;20043;-69
2022/09/10 01:07:59;;;;;;;31.70;10.02;;;;;;;11.47;63.79;100878.69;10253249;28;20046;-69
2022/09/10 01:13:18;;;;;;;22.45;6.43;;;;;;;11.84;64.25;100958.16;10258104;28;20419;-69
2022/09/10 01:18:51;;;;;;;17.60;6.85;;;;;;;11.36;67.32;100896.59;10257320;28;20089;-69
2022/09/10 01:24:13;;;;;;;33.85;13.05;;;;;;;11.64;67.57;100977.06;10257494;28;20043;-69
2022/09/10 01:29:23;;;;;;;21.95;9.70;;;;;;;11.60;66.02;100989.00;10257536;28;20039;-69
2022/09/10 01:34:31;;;;;;;24.70;7.55;;;;;;;11.62;65.68;100979.03;10257672;28;20059;-69
2022/09/10 01:39:33;;;;;;;21.30;6.25;;;;;;;11.65;65.40;100983.19;10255895;29;20047;-69
2022/09/10 01:44:40;;;;;;;29.52;7.43;;;;;;;11.66;67.89;100988.34;10256602;28;20039;-69
2022/09/10 01:49:59;;;;;;;49.40;9.20;;;;;;;11.59;67.46;100978.53;10256256;28;20057;-69
2022/09/10 01:55:30;;;;;;;19.00;8.40;;;;;;;11.58;67.60;100988.34;10257153;28;20043;-69
2022/09/10 02:00:33;;;;;;;16.70;6.72;;;;;;;11.52;65.96;100986.31;10254695;29;20043;-69
2022/09/10 02:05:38;;;;;;;14.25;5.43;;;;;;;11.05;66.16;100927.34;10256961;28;20049;-69
2022/09/10 02:11:00;;;;;;;20.02;6.60;;;;;;;11.47;66.53;100988.59;10255586;28;20143;-70
2022/09/10 02:16:20;;;;;;;25.08;5.32;;;;;;;11.16;65.91;100967.81;10254649;29;20098;-69
2022/09/10 02:21:22;;;;;;;24.60;5.85;;;;;;;11.36;65.09;100997.66;10254428;28;20039;-69
2022/09/10 02:26:24;;;;;;;33.30;14.98;;;;;;;11.10;64.83;100989.72;10256055;28;20130;-69
2022/09/10 02:31:25;;;;;;;45.83;10.77;;;;;;;11.15;65.24;100991.88;10255679;28;20411;-72
2022/09/10 02:36:26;;;;;;;30.10;7.88;;;;;;;11.05;65.37;100980.53;10255586;28;20059;-69
2022/09/10 02:41:27;;;;;;;39.33;9.80;;;;;;;10.88;65.66;100972.41;10254410;28;20050;-69
2022/09/10 02:46:28;;;;;;;50.97;16.55;;;;;;;11.13;65.59;101013.34;10254702;28;20047;-69
2022/09/10 02:51:29;;;;;;;61.95;12.70;;;;;;;10.97;66.01;101008.72;10254428;28;20071;-69
2022/09/10 02:56:31;;;;;;;19.85;6.18;;;;;;;11.13;65.89;101018.66;10254420;28;20067;-69
2022/09/10 03:01:33;;;;;;;26.25;6.78;;;;;;;10.54;65.38;100913.03;10257245;28;20102;-69
2022/09/10 03:06:34;;;;;;;29.67;9.85;;;;;;;10.60;65.35;100928.38;10259525;28;20053;-69
2022/09/10 03:11:38;;;;;;;26.77;5.40;;;;;;;11.17;66.28;101027.16;10253676;28;20046;-69
2022/09/10 03:16:39;;;;;;;29.02;6.28;;;;;;;11.28;66.61;101029.56;10253733;28;20082;-73
2022/09/10 03:21:40;;;;;;;30.55;5.40;;;;;;;11.47;66.63;101040.97;10252949;28;20071;-69
2022/09/10 03:26:43;;;;;;;15.00;4.20;;;;;;;11.53;64.56;100974.66;10253283;28;20066;-69
2022/09/10 03:31:45;;;;;;;18.20;4.43;;;;;;;12.26;62.92;101008.72;10289454;28;20374;-69
2022/09/10 03:36:46;;;;;;;25.42;4.78;;;;;;;12.98;61.55;101040.16;10285437;28;20063;-70
2022/09/10 03:41:47;;;;;;;15.45;4.00;;;;;;;13.79;59.81;101049.06;10292894;28;20082;-69
2022/09/10 03:46:49;;;;;;;14.80;4.05;;;;;;;14.79;58.13;101049.25;10291996;28;20102;-70
2022/09/10 03:51:50;;;;;;;8.30;3.45;;;;;;;15.22;56.45;100963.94;10292432;28;20435;-70
2022/09/10 03:56:51;;;;;;;16.08;4.68;;;;;;;16.60;54.57;101035.56;10281538;28;20102;-70
2022/09/10 04:01:52;;;;;;;17.25;3.78;;;;;;;17.22;51.37;100983.91;10291263;28;20051;-70
2022/09/10 04:06:53;;;;;;;18.42;6.68;;;;;;;18.31;48.10;101044.22;10290270;28;20134;-68
2022/09/10 04:11:54;;;;;;;21.13;5.97;;;;;;;18.42;45.79;101051.72;10291315;28;20122;-68
2022/09/10 04:16:57;;;;;;;11.65;4.43;;;;;;;18.60;43.88;101026.94;10291971;28;20043;-68
2022/09/10 04:21:58;;;;;;;23.77;4.47;;;;;;;18.71;43.03;100988.66;10291051;28;20054;-70
2022/09/10 04:27:00;;;;;;;21.92;3.10;;;;;;;19.34;41.94;101036.75;10292038;28;20137;-69
2022/09/10 04:32:02;;;;;;;6.13;2.70;;;;;;;19.39;40.95;101047.72;10291494;28;20039;-72
2022/09/10 04:37:02;;;;;;;7.00;2.50;;;;;;;19.26;40.04;101051.25;10290565;28;20055;-69
2022/09/10 04:42:05;;;;;;;10.82;2.70;;;;;;;18.74;40.53;101060.94;10292069;28;20137;-68
2022/09/10 04:47:06;;;;;;;16.92;2.40;;;;;;;18.49;40.65;101052.59;10297019;28;20138;-68
2022/09/10 04:52:07;;;;;;;8.25;2.30;;;;;;;18.58;39.91;101072.91;10267833;28;20626;-69
2022/09/10 04:57:07;;;;;;;7.55;2.42;;;;;;;18.60;39.63;101070.00;10285043;28;20042;-69
2022/09/10 05:02:09;;;;;;;7.90;2.03;;;;;;;18.59;39.16;101063.78;10272586;28;20051;-68
2022/09/10 05:07:10;;;;;;;8.32;1.90;;;;;;;18.77;39.12;101065.94;10259406;28;20191;-69
2022/09/10 05:12:11;;;;;;;10.52;2.22;;;;;;;18.88;39.01;101068.03;10257179;29;20039;-69
2022/09/10 05:17:11;;;;;;;7.40;2.15;;;;;;;19.04;38.89;101079.44;10257301;29;20043;-68
2022/09/10 05:22:12;;;;;;;11.02;2.05;;;;;;;19.19;38.24;101080.06;10257385;28;20047;-69
2022/09/10 05:27:13;;;;;;;9.10;2.35;;;;;;;19.27;37.94;101073.66;10257570;28;20043;-70
2022/09/10 05:32:14;;;;;;;13.57;2.35;;;;;;;19.10;37.47;101030.94;10298293;28;20073;-69
2022/09/10 05:37:17;;;;;;;11.45;2.03;;;;;;;19.34;37.23;101077.16;10296453;28;20566;-69
2022/09/10 05:42:20;;;;;;;32.47;3.40;;;;;;;19.47;37.53;101084.38;10286124;28;20404;-70
2022/09/10 05:47:21;;;;;;;17.13;2.53;;;;;;;19.73;37.15;101086.25;10256261;28;20134;-69
2022/09/10 05:52:23;;;;;;;13.85;2.13;;;;;;;20.02;36.46;101104.66;10255822;28;20138;-68
2022/09/10 05:57:24;;;;;;;9.75;2.00;;;;;;;20.40;36.43;101112.00;10257296;28;20043;-70
2022/09/10 06:02:25;;;;;;;6.78;1.80;;;;;;;20.29;35.96;101062.22;10259169;28;20081;-71
2022/09/10 06:07:30;;;;;;;11.60;1.83;;;;;;;20.64;34.81;101110.47;10261166;28;20153;-69
2022/09/10 06:12:33;;;;;;;15.68;2.08;;;;;;;21.03;35.65;101107.72;10261504;28;20059;-72
2022/09/10 06:17:37;;;;;;;12.40;2.30;;;;;;;20.98;34.96;101093.00;10263215;28;20043;-70
2022/09/10 06:22:38;;;;;;;;;;;;;;;21.33;33.85;101116.88;10259740;28;20046;-70
2022/09/10 06:27:39;;;;;;;7.93;2.10;;;;;;;21.15;34.40;101101.41;10260026;28;19926;-73
2022/09/10 06:32:40;;;;;;;10.93;2.88;;;;;;;21.59;34.42;101120.41;10272916;28;20514;-71
2022/09/10 06:37:41;;;;;;;5.65;1.75;;;;;;;21.63;33.37;101111.66;10254526;28;20162;-72
2022/09/10 06:42:41;;;;;;;9.85;2.63;;;;;;;21.80;33.60;101114.56;10269429;28;20051;-69
2022/09/10 06:47:42;;;;;;;10.05;2.22;;;;;;;21.91;33.03;101106.78;10275805;28;20042;-68
2022/09/10 06:52:43;;;;;;;6.07;2.03;;;;;;;22.27;33.37;101117.63;10258682;28;20051;-69
2022/09/10 06:57:44;;;;;;;5.72;1.80;;;;;;;22.22;32.62;101106.66;10254535;28;20039;-71
2022/09/10 07:02:45;;;;;;;5.57;2.13;;;;;;;22.13;32.32;101101.75;10285189;28;20047;-68
2022/09/10 07:07:45;;;;;;;10.50;2.42;;;;;;;21.92;32.16;101075.97;10292393;28;20049;-64
2022/09/10 07:12:46;;;;;;;12.63;2.47;;;;;;;22.14;32.50;101069.06;10293572;28;20047;-68
2022/09/10 07:17:47;;;;;;;5.40;1.90;;;;;;;22.32;31.63;101096.13;10292006;28;20041;-67
2022/09/10 08:12:36;;;;;;;9.65;2.50;;;;;;;23.77;29.97;101047.22;11595235;23;20068;-72
2022/09/10 08:17:37;;;;;;;6.63;2.07;;;;;;;23.87;29.54;101039.28;10112583;29;20045;-72
2022/09/10 08:22:38;;;;;;;4.88;2.08;;;;;;;23.40;29.73;100966.94;10124643;29;20048;-74
2022/09/10 08:27:41;;;;;;;11.43;2.70;;;;;;;23.29;29.17;100964.22;10125077;29;20045;-71
2022/09/10 08:32:42;;;;;;;20.40;2.97;;;;;;;23.92;29.74;101023.09;10100480;29;20057;-72
2022/09/10 08:37:43;;;;;;;17.75;2.50;;;;;;;23.53;29.86;100946.03;10101386;29;20064;-75
2022/09/10 08:42:49;;;;;;;15.48;2.80;;;;;;;24.02;28.89;101006.19;10117104;29;20056;-74
2022/09/10 08:48:07;;;;;;;7.10;2.60;;;;;;;24.10;29.07;101003.13;10133630;29;20112;-73
2022/09/10 08:53:36;;;;;;;7.82;2.42;;;;;;;23.63;28.83;100932.69;10123061;29;20044;-77
2022/09/10 08:58:48;;;;;;;11.23;3.13;;;;;;;23.80;28.28;100916.50;10112761;29;20064;-70
2022/09/10 09:03:54;;;;;;;9.98;2.47;;;;;;;24.31;28.96;100975.28;10104451;29;20100;-74
2022/09/10 09:08:57;;;;;;;11.77;2.78;;;;;;;24.55;28.44;100984.16;10102680;29;20082;-74
2022/09/10 09:14:07;;;;;;;6.25;2.40;;;;;;;24.73;28.29;100987.72;10132690;29;20056;-76
2022/09/10 09:19:33;;;;;;;11.23;2.67;;;;;;;24.90;28.63;100980.38;10124446;29;20060;-76
2022/09/10 09:24:43;;;;;;;14.18;2.65;;;;;;;24.83;28.48;100980.56;10089295;29;20045;-80
2022/09/10 09:30:02;;;;;;;13.40;2.40;;;;;;;24.77;28.06;100965.25;10121478;29;20093;-71
2022/09/10 09:35:06;;;;;;;7.97;2.63;;;;;;;24.68;28.20;100961.31;10129617;29;20100;-71
2022/09/10 09:40:13;;;;;;;;;;;;;;;25.03;28.13;100963.72;10137947;29;20099;-72
2022/09/10 09:45:36;;;;;;;20.98;2.70;;;;;;;25.22;28.29;100969.75;10126673;29;19923;-71
2022/09/10 09:50:41;;;;;;;13.75;2.47;;;;;;;25.30;27.87;100956.81;10103751;29;20121;-72
2022/09/10 09:55:48;;;;;;;8.90;2.50;;;;;;;25.22;28.02;100945.28;10100534;29;20391;-70
2022/09/10 10:01:13;;;;;;;13.25;3.10;;;;;;;25.24;27.46;100936.88;10113062;29;20080;-73
2022/09/10 10:06:15;;;;;;;13.57;3.13;;;;;;;25.15;28.01;100938.38;10116543;29;20052;-70
2022/09/10 10:11:22;;;;;;;7.65;2.63;;;;;;;25.12;26.89;100936.94;10111602;29;20489;-71
2022/09/10 10:16:34;;;;;;;14.20;2.78;;;;;;;24.67;27.29;100882.75;10114865;29;20057;-70
2022/09/10 10:21:35;;;;;;;8.00;2.28;;;;;;;24.97;27.41;100893.25;10118319;29;20401;-75
2022/09/10 10:26:37;;;;;;;12.25;2.80;;;;;;;24.87;27.83;100850.44;10102331;29;20099;-71
2022/09/10 10:31:43;;;;;;;8.63;2.38;;;;;;;25.25;27.62;100927.66;10132600;29;20540;-72
2022/09/10 10:37:02;;;;;;;11.18;2.67;;;;;;;25.30;27.79;100913.28;10128907;29;20053;-73
2022/09/10 10:42:30;;;;;;;10.02;2.38;;;;;;;25.41;27.04;100920.50;10121755;29;20056;-76
2022/09/10 10:47:44;;;;;;;15.48;2.75;;;;;;;25.29;27.17;100901.59;10126672;29;20204;-72
2022/09/10 10:53:12;;;;;;;8.70;2.35;;;;;;;25.12;26.45;100877.13;10110321;29;20068;-71
2022/09/10 10:58:37;;;;;;;8.25;2.67;;;;;;;24.91;27.37;100838.00;10121150;29;20044;-72
2022/09/10 11:03:50;;;;;;;11.88;3.03;;;;;;;24.74;26.79;100850.78;10132662;29;20111;-71
2022/09/10 11:09:00;;;;;;;12.23;2.65;;;;;;;24.78;26.57;100841.06;10110927;29;20491;-72
2022/09/10 11:14:28;;;;;;;15.23;2.63;;;;;;;25.15;26.61;100878.56;10114842;29;20056;-70
2022/09/10 11:19:39;;;;;;;14.63;2.65;;;;;;;24.83;27.32;100811.28;10108860;29;20048;-71
2022/09/10 11:25:14;;;;;;;17.10;2.83;;;;;;;25.42;27.59;100874.00;10079489;29;20079;-76
2022/09/10 11:30:16;;;;;;;14.52;3.08;;;;;;;25.16;27.09;100856.59;10079257;29;20478;-73
2022/09/10 11:35:22;;;;;;;30.42;3.55;;;;;;;25.11;26.95;100842.06;10078845;29;20140;-78
2022/09/10 11:40:40;;;;;;;14.98;2.70;;;;;;;25.12;27.55;100862.72;10079050;29;20584;-74
2022/09/10 11:45:52;;;;;;;18.55;2.70;;;;;;;25.23;26.87;100853.66;10090373;29;20045;-74
2022/09/10 11:51:04;;;;;;;8.35;2.40;;;;;;;25.27;27.41;100836.56;10093671;29;20072;-75
2022/09/10 11:56:23;;;;;;;9.77;2.70;;;;;;;24.96;27.55;100774.75;10093153;29;20139;-75
2022/09/10 12:01:50;;;;;;;10.00;2.50;;;;;;;24.81;27.26;100759.88;10096646;29;20584;-73
2022/09/10 12:07:13;;;;;;;12.68;2.40;;;;;;;24.93;26.85;100758.94;10099408;29;20135;-73
2022/09/10 12:12:22;;;;;;;9.82;2.60;;;;;;;25.06;26.72;100805.56;10094512;29;20057;-70
2022/09/10 12:17:31;;;;;;;12.18;2.55;;;;;;;24.54;27.67;100759.78;10096130;29;20603;-72
2022/09/10 12:22:37;;;;;;;29.27;2.95;;;;;;;24.83;27.49;100808.56;10095523;29;20053;-73
2022/09/10 12:27:47;;;;;;;22.17;3.28;;;;;;;24.57;26.90;100780.22;10083512;29;20076;-72
2022/09/10 12:32:49;;;;;;;11.13;3.08;;;;;;;24.56;27.14;100790.25;10085163;29;20099;-74
2022/09/10 12:38:28;;;;;;;13.00;2.63;;;;;;;24.83;26.94;100817.53;10099615;29;20053;-72
2022/09/10 12:43:38;;;;;;;36.97;3.13;;;;;;;24.71;27.21;100807.81;10096705;29;20517;-72
2022/09/10 12:48:45;;;;;;;12.70;2.58;;;;;;;24.46;27.67;100781.13;10099004;29;20044;-73
2022/09/10 12:54:14;;;;;;;10.45;2.35;;;;;;;24.53;27.37;100804.34;10098633;29;20136;-73
2022/09/10 12:59:26;;;;;;;11.73;2.25;;;;;;;24.29;27.77;100808.25;10114675;29;20139;-72
2022/09/10 13:04:37;;;;;;;22.65;4.43;;;;;;;24.29;28.08;100800.09;10107462;29;20161;-74
2022/09/10 13:09:47;;;;;;;14.73;3.60;;;;;;;24.08;28.15;100785.38;10093589;29;20383;-71
2022/09/10 13:14:56;;;;;;;17.55;3.45;;;;;;;23.32;28.31;100671.00;10096442;29;20537;-72
2022/09/10 13:20:28;;;;;;;10.82;2.40;;;;;;;24.05;27.78;100805.72;10100171;29;20052;-71
2022/09/10 13:25:39;;;;;;;19.13;3.00;;;;;;;23.95;28.10;100799.31;10119611;29;20044;-72
2022/09/10 13:30:41;;;;;;;14.02;2.70;;;;;;;23.78;28.28;100800.13;10134424;29;20041;-70
2022/09/10 13:35:49;;;;;;;16.88;2.88;;;;;;;23.23;28.60;100741.84;10118045;29;20083;-71
2022/09/10 13:41:01;;;;;;;15.85;2.83;;;;;;;23.50;28.81;100786.53;10130213;29;20623;-69
2022/09/10 13:46:20;;;;;;;25.70;6.05;;;;;;;23.44;29.19;100786.44;10129501;29;20057;-73
2022/09/10 13:51:31;;;;;;;14.38;3.22;;;;;;;23.35;29.04;100787.88;10132766;29;20568;-71
2022/09/10 13:56:32;;;;;;;10.15;2.78;;;;;;;22.84;29.19;100729.94;10132044;29;20047;-68
2022/09/10 14:01:53;;;;;;;16.40;2.70;;;;;;;23.06;29.31;100778.91;10129172;29;20056;-70
2022/09/10 14:07:14;;;;;;;9.18;2.60;;;;;;;22.92;30.04;100788.34;10124316;29;20052;-70
2022/09/10 14:12:20;;;;;;;15.45;2.90;;;;;;;22.77;30.00;100805.94;10123255;29;20670;-71
2022/09/10 14:17:29;;;;;;;21.23;3.08;;;;;;;22.29;30.03;100733.94;10118429;29;20053;-71
2022/09/10 14:22:30;;;;;;;39.15;4.35;;;;;;;22.38;30.47;100775.00;10130584;29;20052;-72
2022/09/10 14:27:37;;;;;;;56.42;4.93;;;;;;;22.00;30.50;100751.06;10130740;29;20131;-72
2022/09/10 14:32:38;;;;;;;15.43;2.97;;;;;;;22.17;30.51;100803.47;10106755;29;20112;-70
2022/09/10 14:37:40;;;;;;;34.28;3.58;;;;;;;21.82;30.73;100777.13;10131399;29;20033;-74
2022/09/10 14:42:41;;;;;;;15.30;2.80;;;;;;;21.56;30.72;100777.53;10126702;29;20096;-73
2022/09/10 14:47:53;;;;;;;16.75;3.33;;;;;;;21.67;31.34;100817.28;10099736;29;20060;-72
2022/09/10 14:52:54;;;;;;;25.80;3.28;;;;;;;21.52;31.40;100814.19;10129365;29;20730;-74
2022/09/10 14:57:56;;;;;;;10.90;2.42;;;;;;;21.26;31.62;100801.81;10129428;29;20045;-75
2022/09/10 15:02:57;;;;;;;8.50;2.65;;;;;;;21.18;31.95;100805.66;10130042;29;20048;-74
2022/09/10 15:07:58;;;;;;;23.35;2.95;;;;;;;21.02;32.07;100800.84;10128119;29;20052;-70
2022/09/10 15:12:59;;;;;;;17.75;2.85;;;;;;;20.90;31.81;100806.19;10124768;29;20056;-72
2022/09/10 15:18:00;;;;;;;20.77;3.22;;;;;;;20.64;32.50;100796.47;10099088;29;20048;-75
2022/09/10 15:23:00;;;;;;;9.05;2.40;;;;;;;20.21;32.70;100749.53;10105917;29;20041;-73
2022/09/10 15:28:01;;;;;;;24.60;3.38;;;;;;;20.34;32.65;100796.31;10089700;29;20052;-74
2022/09/10 15:33:06;;;;;;;11.65;2.58;;;;;;;20.22;33.05;100804.31;10089868;29;20040;-72
2022/09/10 15:38:11;;;;;;;9.52;2.50;;;;;;;19.96;33.19;100791.88;10104550;29;20049;-73
2022/09/10 15:43:12;;;;;;;20.45;3.13;;;;;;;19.98;33.07;100831.06;10089917;29;20725;-74
2022/09/10 15:48:13;;;;;;;41.33;21.48;;;;;;;19.71;33.33;100795.34;10088546;29;20045;-73
2022/09/10 15:53:14;;;;;;;24.90;11.27;;;;;;;19.36;33.50;100779.56;10089271;29;20045;-72
2022/09/10 15:58:15;;;;;;;14.95;5.18;;;;;;;19.28;33.59;100781.69;10090217;29;20045;-74
2022/09/10 16:03:18;;;;;;;8.55;3.33;;;;;;;19.27;33.91;100812.38;10089267;29;20071;-73
2022/09/10 16:08:19;;;;;;;10.93;2.90;;;;;;;19.25;34.02;100835.97;10103703;29;20063;-73
2022/09/10 16:13:20;;;;;;;6.43;2.42;;;;;;;19.03;34.28;100830.88;10127928;29;20056;-70
2022/09/10 16:18:22;;;;;;;10.95;2.28;;;;;;;18.60;34.33;100790.16;10107900;29;20040;-75
2022/09/10 16:23:22;;;;;;;9.40;2.88;;;;;;;18.76;34.26;100848.13;10093628;29;20161;-75
2022/09/10 16:28:24;;;;;;;10.32;2.38;;;;;;;18.58;34.44;100835.28;10091498;29;20498;-73
2022/09/10 16:33:25;;;;;;;12.38;3.22;;;;;;;18.50;34.27;100852.47;10110526;29;20053;-67
2022/09/10 16:38:26;;;;;;;8.80;2.13;;;;;;;18.50;34.54;100868.59;10117004;29;20045;-65
2022/09/10 16:43:30;;;;;;;9.38;2.05;;;;;;;18.15;34.77;100833.81;10123489;29;20044;-67
2022/09/10 16:48:31;;;;;;;;;;;;;;;18.40;34.60;100878.97;10121017;29;20055;-67
2022/09/10 16:53:35;;;;;;;7.32;2.20;;;;;;;18.18;35.05;100881.00;10134601;29;19925;-67
2022/09/10 16:58:36;;;;;;;14.40;2.45;;;;;;;17.96;35.09;100859.66;10119193;29;20131;-65
2022/09/10 17:03:42;;;;;;;9.00;2.33;;;;;;;17.62;35.10;100820.28;10116945;29;20135;-68
2022/09/10 17:08:44;;;;;;;6.22;2.50;;;;;;;17.89;35.41;100883.03;10113733;29;20078;-67
2022/09/10 17:13:45;;;;;;;6.53;2.13;;;;;;;17.83;35.28;100877.59;10120468;29;20060;-67
2022/09/10 17:18:53;;;;;;;8.73;2.05;;;;;;;17.49;35.40;100836.34;10108870;29;20572;-67
2022/09/10 17:23:55;;;;;;;7.50;1.98;;;;;;;17.62;35.66;100874.03;10111516;29;20529;-68
2022/09/10 17:29:01;;;;;;;3.40;1.77;;;;;;;17.05;35.70;100792.81;10124290;29;20041;-68
2022/09/10 17:34:03;;;;;;;3.80;1.90;;;;;;;17.46;35.61;100874.34;10119592;29;20118;-67
2022/09/10 17:39:04;;;;;;;6.90;2.25;;;;;;;17.45;35.69;100888.81;10120072;29;20048;-67
2022/09/10 17:44:06;;;;;;;8.52;1.52;;;;;;;17.32;35.62;100885.06;10123743;29;20041;-65
2022/09/10 17:49:11;;;;;;;4.00;1.50;;;;;;;17.22;36.54;100895.31;10125863;29;20045;-68
2022/09/10 17:54:12;;;;;;;7.63;1.40;;;;;;;17.03;35.43;100863.81;10118046;29;20041;-68
2022/09/10 17:59:13;;;;;;;9.02;1.58;;;;;;;17.01;35.40;100885.47;10125111;29;20051;-67
2022/09/10 18:04:14;;;;;;;3.38;1.52;;;;;;;16.95;35.35;100901.53;10129988;29;20053;-65
2022/09/10 18:09:15;;;;;;;7.00;1.77;;;;;;;16.71;35.03;100868.72;10128902;29;20048;-67
2022/09/10 18:14:17;;;;;;;3.05;1.27;;;;;;;16.75;34.81;100894.16;10124453;29;20053;-70
2022/09/10 18:19:19;;;;;;;5.85;1.25;;;;;;;16.75;34.83;100886.13;10118220;29;20047;-67
2022/09/10 18:24:22;;;;;;;2.78;1.10;;;;;;;16.51;34.25;100851.66;10119033;29;20096;-67
2022/09/10 18:29:26;;;;;;;2.97;1.10;;;;;;;16.53;34.37;100873.75;10126413;29;20067;-68
2022/09/10 18:34:29;;;;;;;2.45;0.82;;;;;;;16.50;34.11;100871.47;10098804;29;20049;-67
2022/09/10 18:39:31;;;;;;;32.88;14.13;;;;;;;16.47;34.06;100875.34;10099988;29;20049;-67
2022/09/10 18:44:35;;;;;;;8.23;1.80;;;;;;;16.14;33.73;100846.41;10118835;29;20083;-67
2022/09/10 18:49:37;;;;;;;6.57;1.70;;;;;;;16.12;33.82;100844.94;10111095;29;20053;-68
2022/09/10 18:54:39;;;;;;;3.85;1.38;;;;;;;16.19;33.58;100865.44;10120571;29;20067;-68
2022/09/10 18:59:39;;;;;;;5.10;1.10;;;;;;;16.05;33.58;100852.09;10124277;29;20100;-67
2022/09/10 19:04:40;;;;;;;4.68;1.13;;;;;;;16.05;33.57;100865.50;10133469;29;20564;-67
2022/09/10 19:09:42;;;;;;;8.50;1.25;;;;;;;16.00;33.28;100860.69;10134162;29;20056;-67
2022/09/10 19:14:44;;;;;;;1.95;0.65;;;;;;;15.31;33.16;100764.75;10134102;29;20056;-65
2022/09/10 19:19:46;;;;;;;5.63;1.00;;;;;;;15.79;33.01;100861.50;10132718;29;20107;-68
2022/09/10 19:24:47;;;;;;;3.28;0.73;;;;;;;14.85;32.95;100719.56;10131955;29;20048;-68
2022/09/10 19:29:48;;;;;;;7.78;1.10;;;;;;;15.46;33.17;100819.06;10134854;29;20107;-68
2022/09/10 19:34:50;;;;;;;4.40;0.60;;;;;;;15.66;33.17;100872.88;10131775;29;20440;-68
2022/09/10 19:39:51;;;;;;;2.10;0.80;;;;;;;15.58;32.80;100856.09;10133624;29;20064;-66
2022/09/10 19:44:51;;;;;;;2.40;0.52;;;;;;;15.42;32.85;100833.03;10123720;29;20524;-68
2022/09/10 19:49:52;;;;;;;6.78;1.95;;;;;;;15.50;33.50;100857.03;10133943;29;20568;-67
2022/09/10 19:54:53;;;;;;;4.72;0.80;;;;;;;15.40;33.77;100846.59;10135126;29;20045;-67
2022/09/10 19:59:54;;;;;;;7.28;1.15;;;;;;;15.39;34.49;100855.66;10132156;29;20052;-65
2022/09/10 20:04:55;;;;;;;8.45;1.02;;;;;;;15.28;35.42;100853.44;10133530;29;20099;-66
2022/09/10 20:09:56;;;;;;;5.72;1.40;;;;;;;15.21;36.15;100856.06;10131837;29;20044;-67
2022/09/10 20:14:57;;;;;;;3.67;1.10;;;;;;;14.69;36.86;100789.25;10107343;29;20056;-66
2022/09/10 20:19:58;;;;;;;9.07;1.50;;;;;;;14.26;37.40;100724.88;10133773;29;20056;-66
2022/09/10 20:24:58;;;;;;;10.25;1.50;;;;;;;14.90;38.28;100845.56;10132190;29;20044;-66
2022/09/10 20:30:01;;;;;;;5.78;1.40;;;;;;;14.54;39.04;100790.09;10131935;29;20048;-67
2022/09/10 20:35:02;;;;;;;6.30;1.52;;;;;;;14.15;39.59;100732.34;10134533;29;20044;-66
2022/09/10 20:40:03;;;;;;;8.18;1.48;;;;;;;14.50;39.87;100787.94;10132854;29;20413;-66
2022/09/10 20:45:05;;;;;;;10.40;2.30;;;;;;;14.82;40.76;100859.00;10133596;29;20254;-66
2022/09/10 20:50:06;;;;;;;6.43;1.48;;;;;;;14.74;42.05;100862.56;10129988;29;20413;-66
2022/09/10 20:55:07;;;;;;;9.50;1.80;;;;;;;14.20;42.93;100793.22;10132291;29;20045;-66
2022/09/10 21:00:10;;;;;;;3.97;1.38;;;;;;;14.13;43.86;100785.09;10132793;29;20049;-66
2022/09/10 21:05:12;;;;;;;4.10;1.45;;;;;;;14.63;43.93;100870.22;10131272;29;20040;-66
2022/09/10 21:10:13;;;;;;;3.58;1.67;;;;;;;14.53;44.91;100857.94;10133486;29;20048;-66
2022/09/10 21:15:14;;;;;;;5.80;2.30;;;;;;;14.43;45.75;100835.97;10132327;29;20151;-67
2022/09/10 21:20:15;;;;;;;4.82;1.25;;;;;;;14.47;45.70;100850.59;10132857;29;20104;-67
2022/09/10 21:25:16;;;;;;;3.90;1.52;;;;;;;14.25;45.98;100817.56;10136210;29;20047;-66
2022/09/10 21:30:17;;;;;;;5.88;1.70;;;;;;;14.43;46.47;100841.31;10139252;29;20050;-66
2022/09/10 21:35:18;;;;;;;5.32;1.40;;;;;;;13.88;46.54;100764.94;10139324;29;20048;-67
2022/09/10 21:40:19;;;;;;;3.92;1.52;;;;;;;14.26;47.12;100829.09;10140097;29;20457;-66
2022/09/10 21:45:20;;;;;;;8.43;1.83;;;;;;;14.02;47.52;100812.25;10139356;29;20108;-66
2022/09/10 21:50:20;;;;;;;4.25;1.50;;;;;;;14.18;48.13;100834.50;10139284;29;20048;-66
2022/09/10 21:55:22;;;;;;;9.55;1.88;;;;;;;14.14;48.48;100829.50;10139331;29;20044;-67
2022/09/10 22:00:26;;;;;;;9.05;1.92;;;;;;;14.09;48.61;100829.22;10139334;29;20437;-66
2022/09/10 22:05:27;;;;;;;3.40;1.70;;;;;;;13.77;49.19;100770.72;10138831;29;20065;-66
2022/09/10 22:10:30;;;;;;;7.20;1.63;;;;;;;13.90;50.02;100797.66;10138857;29;20033;-66
2022/09/10 22:15:30;;;;;;;15.93;2.55;;;;;;;13.94;50.44;100817.66;10138620;29;20493;-67
2022/09/10 22:20:32;;;;;;;12.95;2.13;;;;;;;13.74;51.34;100806.63;10138281;29;20064;-66
2022/09/10 22:25:33;;;;;;;3.92;1.52;;;;;;;13.78;51.13;100821.25;10137515;29;20055;-66
2022/09/10 22:30:35;;;;;;;12.07;2.10;;;;;;;13.77;51.94;100827.63;10137074;29;20513;-67
2022/09/10 22:35:37;;;;;;;14.98;2.65;;;;;;;13.71;52.07;100806.97;10137394;29;20436;-66
2022/09/10 22:40:38;;;;;;;10.45;2.33;;;;;;;13.57;52.23;100797.88;10136668;29;20128;-66
2022/09/10 22:45:39;;;;;;;12.65;2.25;;;;;;;13.63;52.68;100815.84;10137452;29;20404;-67
2022/09/10 22:50:40;;;;;;;4.50;1.60;;;;;;;13.09;53.35;100732.25;10137112;29;20045;-66
2022/09/10 22:55:41;;;;;;;19.70;2.58;;;;;;;13.15;53.34;100735.03;10136646;29;20135;-66
2022/09/10 23:00:42;;;;;;;7.95;1.88;;;;;;;13.61;53.69;100811.69;10135834;29;20139;-66
2022/09/10 23:05:42;;;;;;;11.07;1.90;;;;;;;13.64;54.21;100812.19;10136299;29;20041;-67
2022/09/10 23:10:43;;;;;;;6.70;1.90;;;;;;;13.66;53.91;100817.34;10137018;29;20049;-67
2022/09/10 23:15:45;;;;;;;14.18;1.88;;;;;;;13.39;54.31;100778.63;10136825;29;20064;-66
2022/09/10 23:20:45;;;;;;;7.20;1.50;;;;;;;13.59;54.56;100800.38;10135726;29;20072;-66
2022/09/10 23:25:46;;;;;;;7.07;2.05;;;;;;;13.04;54.90;100724.75;10135557;29;20374;-67
2022/09/10 23:30:47;;;;;;;20.13;2.70;;;;;;;13.43;54.82;100801.28;10135859;29;20051;-66
2022/09/10 23:35:49;;;;;;;6.00;1.50;;;;;;;13.33;55.59;100800.69;10135147;29;20069;-66
2022/09/10 23:40:50;;;;;;;5.15;1.63;;;;;;;13.21;55.34;100790.38;10134372;29;20175;-67
2022/09/10 23:45:52;;;;;;;10.18;1.73;;;;;;;13.12;55.58;100778.06;10134861;29;20041;-67
2022/09/10 23:50:53;;;;;;;8.25;1.50;;;;;;;13.07;55.93;100775.09;10135197;29;20044;-67
2022/09/10 23:55:56;;;;;;;11.63;1.85;;;;;;;12.76;56.14;100716.41;10134550;29;20048;-67
